Time;durP1;ratioP1;P1;durP2;ratioP2;P2;SDS_P1;SDS_P2;PMS_P1;PMS_P2;Temp;Humidity;BMP_temperature;BMP_pressure;BME280_temperature;BME280_humidity;BME280_pressure;Samples;Min_cycle;Max_cycle;Signal;HPM_P1;HPM_P2
2021/05/07 00:02:19;;;;;;;4.78;2.53;;;;;;;11.81;48.50;99494.66;5115014;28;20430;-71
2021/05/07 00:04:45;;;;;;;5.60;2.50;;;;;;;11.80;48.82;99496.50;5095943;28;20036;-70
2021/05/07 00:07:11;;;;;;;6.65;3.13;;;;;;;11.73;48.50;99472.03;5096999;28;20035;-69
2021/05/07 00:09:36;;;;;;;6.45;2.60;;;;;;;11.86;48.49;99493.31;5115654;28;20032;-71
2021/05/07 00:12:04;;;;;;;9.13;3.05;;;;;;;11.58;48.58;99450.97;5096556;28;20036;-71
2021/05/07 00:14:29;;;;;;;5.57;2.67;;;;;;;11.73;48.89;99480.03;5115002;28;20501;-71
2021/05/07 00:16:56;;;;;;;5.55;2.60;;;;;;;11.33;49.07;99420.81;5114785;28;20067;-72
2021/05/07 00:19:21;;;;;;;6.03;2.60;;;;;;;11.62;49.53;99484.50;5096682;28;20062;-70
2021/05/07 00:21:47;;;;;;;5.68;2.40;;;;;;;11.55;49.49;99476.09;5115051;28;20036;-70
2021/05/07 00:24:12;;;;;;;5.25;2.67;;;;;;;11.46;49.59;99461.63;5115057;28;20034;-70
2021/05/07 00:26:38;;;;;;;6.55;2.80;;;;;;;11.50;50.21;99483.63;5114656;28;20396;-71
2021/05/07 00:29:03;;;;;;;5.97;2.92;;;;;;;11.45;50.23;99481.28;5114568;28;20048;-71
2021/05/07 00:31:30;;;;;;;6.38;2.60;;;;;;;11.30;50.62;99457.59;5096463;28;20028;-71
2021/05/07 00:33:55;;;;;;;5.57;2.67;;;;;;;11.41;50.66;99477.16;5114447;28;20035;-71
2021/05/07 00:36:21;;;;;;;6.30;2.60;;;;;;;11.35;51.02;99474.09;5096453;28;20123;-71
2021/05/07 00:38:46;;;;;;;7.38;2.53;;;;;;;11.29;51.22;99475.44;5114468;28;20470;-71
2021/05/07 00:41:12;;;;;;;7.88;2.70;;;;;;;11.00;51.06;99407.34;5115065;28;20035;-71
2021/05/07 00:43:41;;;;;;;5.20;2.70;;;;;;;11.36;51.25;99457.97;5096133;28;20459;-71
2021/05/07 00:46:07;;;;;;;5.95;2.67;;;;;;;11.22;51.45;99450.16;5079350;28;20104;-71
2021/05/07 00:48:32;;;;;;;7.60;2.75;;;;;;;11.33;51.59;99462.69;5079531;28;20035;-70
2021/05/07 00:50:58;;;;;;;4.78;2.85;;;;;;;11.33;51.50;99468.88;5078974;28;20031;-70
2021/05/07 00:53:27;;;;;;;5.90;2.88;;;;;;;11.30;51.99;99471.78;5114190;28;20032;-70
2021/05/07 00:55:53;;;;;;;5.03;2.65;;;;;;;11.25;52.32;99468.59;5095765;28;20066;-70
2021/05/07 00:58:19;;;;;;;5.70;2.70;;;;;;;11.08;52.36;99451.19;5114371;28;20067;-71
2021/05/07 01:00:48;;;;;;;7.90;3.10;;;;;;;11.19;52.63;99463.72;5114137;28;20394;-76
2021/05/07 01:03:14;;;;;;;7.32;3.20;;;;;;;11.11;52.76;99466.13;5113915;28;20040;-71
2021/05/07 01:05:39;;;;;;;6.60;2.92;;;;;;;11.08;53.20;99469.00;5114268;28;20058;-70
2021/05/07 01:08:04;;;;;;;6.85;3.10;;;;;;;10.92;53.35;99444.47;5113788;28;20028;-71
2021/05/07 01:10:30;;;;;;;9.57;2.60;;;;;;;11.03;53.46;99463.19;5113858;28;20027;-71
2021/05/07 01:12:55;;;;;;;9.10;3.00;;;;;;;10.94;53.73;99469.19;5095619;28;20122;-71
2021/05/07 01:15:25;;;;;;;6.38;2.90;;;;;;;10.80;53.97;99441.69;5095841;28;20430;-71
2021/05/07 01:17:51;;;;;;;5.72;2.75;;;;;;;10.91;54.16;99466.78;5113503;28;20411;-74
2021/05/07 01:20:19;;;;;;;5.35;2.63;;;;;;;10.72;54.52;99444.13;5095735;28;20036;-73
2021/05/07 01:22:49;;;;;;;6.50;2.78;;;;;;;10.70;54.68;99434.50;5113963;28;20027;-73
2021/05/07 01:25:17;;;;;;;5.72;3.15;;;;;;;10.82;54.82;99461.16;5114001;28;20069;-72
2021/05/07 01:27:45;;;;;;;6.60;2.75;;;;;;;10.81;54.62;99445.25;5113625;28;20032;-73
2021/05/07 01:30:12;;;;;;;5.45;2.70;;;;;;;10.81;54.84;99459.44;5113170;28;20035;-73
2021/05/07 01:32:38;;;;;;;7.82;2.90;;;;;;;10.76;55.07;99448.25;5113761;28;20031;-73
2021/05/07 01:35:24;;;;;;;8.75;3.10;;;;;;;10.71;55.39;99438.88;5113487;28;20039;-74
2021/05/07 01:37:53;;;;;;;7.63;3.22;;;;;;;10.75;55.36;99451.03;5113580;28;20365;-75
2021/05/07 01:40:21;;;;;;;6.15;3.10;;;;;;;10.80;55.44;99455.03;5113313;28;20031;-74
2021/05/07 01:42:48;;;;;;;8.40;2.90;;;;;;;10.58;55.67;99420.25;5113562;28;20031;-76
2021/05/07 01:45:15;;;;;;;8.90;2.95;;;;;;;10.75;55.79;99443.88;5095307;28;20036;-75
2021/05/07 01:47:42;;;;;;;7.22;3.00;;;;;;;10.65;56.25;99447.34;5095341;28;20131;-74
2021/05/07 01:50:09;;;;;;;9.55;3.47;;;;;;;10.16;56.48;99371.75;5078285;28;20847;-73
2021/05/07 01:52:35;;;;;;;6.30;2.75;;;;;;;10.60;56.45;99435.16;5113655;28;20027;-74
2021/05/07 01:55:02;;;;;;;5.10;2.83;;;;;;;10.49;56.94;99420.94;5113162;28;20035;-74
2021/05/07 01:57:32;;;;;;;8.18;3.38;;;;;;;10.56;56.91;99419.53;5095532;28;20081;-73
2021/05/07 01:59:58;;;;;;;5.55;3.25;;;;;;;10.63;56.81;99417.28;5095141;28;20039;-74
2021/05/07 02:02:24;;;;;;;8.43;3.40;;;;;;;10.67;56.97;99414.25;5113189;28;20071;-74
2021/05/07 02:04:49;;;;;;;7.15;3.55;;;;;;;10.56;57.15;99406.19;5113222;28;20027;-76
2021/05/07 02:07:15;;;;;;;8.02;3.70;;;;;;;10.59;57.17;99411.28;5113461;28;20093;-73
2021/05/07 02:09:40;;;;;;;7.10;3.13;;;;;;;10.60;57.42;99413.84;5113351;28;20541;-74
2021/05/07 02:12:07;;;;;;;7.07;3.60;;;;;;;10.60;57.42;99429.84;5113347;28;20479;-74
2021/05/07 02:14:32;;;;;;;5.82;3.70;;;;;;;10.74;56.91;99436.00;5094836;28;20044;-73
2021/05/07 02:17:00;;;;;;;9.90;3.60;;;;;;;10.66;57.36;99436.56;5094915;28;20043;-73
2021/05/07 02:19:25;;;;;;;6.40;3.25;;;;;;;10.71;57.34;99444.19;5078267;28;20044;-70
2021/05/07 02:21:51;;;;;;;7.97;3.47;;;;;;;10.73;57.39;99445.81;5094684;28;20047;-73
2021/05/07 02:24:16;;;;;;;8.93;3.90;;;;;;;10.73;57.14;99439.63;5113183;28;20039;-72
2021/05/07 02:26:42;;;;;;;8.48;3.60;;;;;;;10.81;57.18;99442.59;5094844;28;20465;-74
2021/05/07 02:29:07;;;;;;;8.32;3.65;;;;;;;10.64;57.36;99422.47;5080770;28;20126;-74
2021/05/07 02:31:33;;;;;;;6.40;4.03;;;;;;;10.70;57.37;99437.16;5098786;28;20028;-74
2021/05/07 02:33:58;;;;;;;7.88;3.65;;;;;;;10.64;57.56;99434.97;5116557;28;20468;-74
2021/05/07 02:36:24;;;;;;;8.85;3.60;;;;;;;10.42;58.17;99409.88;5116822;28;20062;-70
2021/05/07 02:38:49;;;;;;;8.52;3.63;;;;;;;10.52;57.96;99434.06;5116956;28;20035;-71
2021/05/07 02:41:15;;;;;;;8.07;3.55;;;;;;;10.49;57.84;99427.09;5098444;28;20062;-70
2021/05/07 02:43:40;;;;;;;6.68;3.30;;;;;;;10.51;58.18;99435.00;5098804;28;20032;-71
2021/05/07 02:46:06;;;;;;;8.55;4.03;;;;;;;10.47;58.58;99422.84;5116637;28;20035;-69
2021/05/07 02:48:31;;;;;;;8.00;4.15;;;;;;;10.43;58.37;99395.59;5098550;28;20035;-70
2021/05/07 02:50:56;;;;;;;9.63;3.97;;;;;;;10.45;58.12;99392.78;5116464;28;20023;-75
2021/05/07 02:53:22;;;;;;;8.18;3.70;;;;;;;10.62;58.08;99416.41;5116809;28;20030;-74
2021/05/07 02:55:47;;;;;;;8.60;4.60;;;;;;;10.64;58.04;99422.47;5116718;28;20035;-74
2021/05/07 02:58:13;;;;;;;7.55;3.95;;;;;;;10.43;58.71;99408.06;5098071;28;20032;-74
2021/05/07 03:00:38;;;;;;;10.88;4.15;;;;;;;10.36;58.88;99399.66;5098515;28;20035;-74
2021/05/07 03:03:04;;;;;;;6.85;3.97;;;;;;;10.37;58.84;99404.00;5098058;28;20027;-75
2021/05/07 03:05:29;;;;;;;9.38;3.90;;;;;;;10.36;58.98;99410.31;5116835;28;20038;-74
2021/05/07 03:07:55;;;;;;;9.15;4.57;;;;;;;10.22;59.32;99405.97;5098065;28;20411;-74
2021/05/07 03:10:20;;;;;;;9.68;4.20;;;;;;;10.25;59.47;99400.44;5098410;28;20027;-74
2021/05/07 03:12:46;;;;;;;9.23;4.07;;;;;;;10.24;59.34;99390.72;5098172;28;20080;-74
2021/05/07 03:15:12;;;;;;;9.00;4.13;;;;;;;10.18;59.90;99407.13;5116177;28;20475;-74
2021/05/07 03:17:38;;;;;;;11.27;4.35;;;;;;;10.21;59.84;99401.56;5098121;28;20032;-74
2021/05/07 03:20:05;;;;;;;9.15;4.18;;;;;;;10.11;60.23;99400.53;5115893;28;20134;-74
2021/05/07 03:22:31;;;;;;;11.27;4.70;;;;;;;10.18;60.19;99406.28;5098228;28;20084;-70
2021/05/07 03:24:57;;;;;;;11.30;4.70;;;;;;;10.19;60.17;99392.84;5097910;28;20422;-70
2021/05/07 03:27:22;;;;;;;11.25;4.80;;;;;;;10.15;60.76;99395.84;5097957;28;20032;-70
2021/05/07 03:29:48;;;;;;;10.27;4.60;;;;;;;10.22;60.61;99397.97;5116071;28;20032;-72
2021/05/07 03:32:13;;;;;;;13.70;5.00;;;;;;;10.03;60.56;99369.09;5115499;28;20028;-70
2021/05/07 03:34:39;;;;;;;11.73;4.65;;;;;;;10.34;60.20;99395.41;5116081;28;20031;-70
2021/05/07 03:37:04;;;;;;;8.65;4.40;;;;;;;10.48;59.74;99390.75;5115649;28;20471;-70
2021/05/07 03:39:30;;;;;;;9.85;4.68;;;;;;;10.48;59.67;99400.56;5114702;28;20038;-70
2021/05/07 03:41:56;;;;;;;12.27;4.35;;;;;;;10.41;59.86;99408.16;5097192;28;20053;-77
2021/05/07 03:44:21;;;;;;;8.10;4.30;;;;;;;9.91;60.17;99330.03;5115792;28;20039;-71
2021/05/07 03:46:47;;;;;;;13.32;4.32;;;;;;;10.38;59.74;99375.53;5097646;28;20036;-70
2021/05/07 03:49:12;;;;;;;8.18;4.38;;;;;;;10.38;59.95;99383.53;5096916;28;20053;-74
2021/05/07 03:51:38;;;;;;;8.43;4.30;;;;;;;10.53;60.05;99385.09;5097272;28;20031;-76
2021/05/07 03:54:05;;;;;;;8.80;4.47;;;;;;;10.50;59.44;99363.97;5115609;28;20035;-75
2021/05/07 03:56:30;;;;;;;12.50;5.00;;;;;;;10.72;59.19;99393.44;5097362;28;20035;-76
2021/05/07 03:58:56;;;;;;;9.73;5.03;;;;;;;10.52;58.57;99336.25;5115424;28;20192;-72
2021/05/07 04:01:24;;;;;;;9.30;4.10;;;;;;;10.87;58.75;99402.94;5115236;28;20058;-72
2021/05/07 04:03:49;;;;;;;12.45;4.53;;;;;;;10.99;58.62;99413.66;5115395;28;20032;-72
2021/05/07 04:06:19;;;;;;;8.93;4.30;;;;;;;10.96;58.36;99413.91;5114972;28;20483;-72
2021/05/07 04:08:54;;;;;;;10.50;4.35;;;;;;;11.02;58.54;99416.97;5097679;28;20042;-72
2021/05/07 04:14:11;;;;;;;9.27;4.47;;;;;;;10.73;59.20;99376.47;5081798;28;20096;-72
2021/05/07 04:16:36;;;;;;;10.45;5.20;;;;;;;10.84;59.29;99400.50;5114749;28;20027;-71
2021/05/07 04:19:02;;;;;;;14.73;4.40;;;;;;;10.83;59.54;99425.50;5096308;28;20104;-72
2021/05/07 04:21:27;;;;;;;10.20;4.72;;;;;;;10.88;59.67;99434.00;5115096;28;20040;-72
2021/05/07 04:23:52;;;;;;;9.13;4.43;;;;;;;10.85;59.95;99434.22;5114772;28;20039;-71
2021/05/07 04:26:19;;;;;;;11.95;5.07;;;;;;;10.80;60.31;99441.69;5096614;28;20460;-75
2021/05/07 04:28:44;;;;;;;11.60;5.18;;;;;;;10.69;60.47;99417.66;5114516;28;20173;-75
2021/05/07 04:31:10;;;;;;;12.38;5.80;;;;;;;10.85;60.42;99439.56;5114556;28;20110;-75
2021/05/07 04:33:35;;;;;;;11.20;5.25;;;;;;;10.83;60.72;99435.31;5114764;28;20484;-74
2021/05/07 04:36:01;;;;;;;11.30;5.57;;;;;;;10.88;61.00;99447.31;5096077;28;20035;-74
2021/05/07 04:38:26;;;;;;;9.90;5.40;;;;;;;10.84;61.33;99453.88;5096510;28;20024;-74
2021/05/07 04:40:52;;;;;;;10.25;5.70;;;;;;;10.92;61.56;99457.78;5114671;28;20610;-73
2021/05/07 04:43:17;;;;;;;11.43;5.63;;;;;;;10.95;62.88;99470.91;5113943;28;20034;-73
2021/05/07 04:45:43;;;;;;;14.43;5.68;;;;;;;10.93;63.81;99467.50;5114616;28;20042;-71
2021/05/07 04:48:13;;;;;;;12.88;5.70;;;;;;;10.81;64.89;99454.09;5113883;28;20384;-71
2021/05/07 04:50:39;;;;;;;15.52;6.00;;;;;;;10.88;65.29;99476.69;5095749;28;20031;-72
2021/05/07 04:53:05;;;;;;;12.50;5.47;;;;;;;11.03;66.47;99482.72;5113776;28;20046;-73
2021/05/07 04:55:30;;;;;;;13.63;6.22;;;;;;;11.01;66.79;99483.81;5114298;28;20036;-73
2021/05/07 04:57:56;;;;;;;12.82;6.43;;;;;;;10.99;67.60;99489.22;5096566;28;20038;-73
2021/05/07 05:00:21;;;;;;;13.73;5.72;;;;;;;10.98;67.38;99497.34;5095808;28;20381;-72
2021/05/07 05:02:47;;;;;;;12.80;5.95;;;;;;;10.97;68.03;99482.31;5078805;28;20047;-73
2021/05/07 05:05:14;;;;;;;12.93;5.85;;;;;;;11.03;68.16;99490.72;5113575;28;20092;-77
2021/05/07 05:07:56;;;;;;;10.88;6.20;;;;;;;11.08;69.18;99491.22;5114044;28;20027;-76
2021/05/07 05:10:22;;;;;;;13.40;6.03;;;;;;;11.12;69.07;99489.19;5113754;28;20027;-76
2021/05/07 05:12:47;;;;;;;14.07;6.55;;;;;;;11.13;69.52;99488.22;5095763;28;20477;-79
2021/05/07 05:15:13;;;;;;;15.43;6.72;;;;;;;11.15;69.47;99492.47;5113701;28;20036;-72
2021/05/07 05:17:39;;;;;;;12.50;7.30;;;;;;;11.15;70.26;99488.94;5095463;28;20031;-71
2021/05/07 05:20:07;;;;;;;15.82;8.23;;;;;;;11.06;70.94;99479.81;5113561;28;20042;-74
2021/05/07 05:22:32;;;;;;;17.52;8.23;;;;;;;11.16;70.86;99498.66;5095508;28;20130;-74
2021/05/07 05:24:58;;;;;;;12.63;8.20;;;;;;;11.23;70.78;99501.72;5095916;28;20127;-74
2021/05/07 05:27:24;;;;;;;12.02;7.30;;;;;;;11.24;70.73;99504.28;5095360;28;20465;-73
2021/05/07 05:29:49;;;;;;;13.07;6.97;;;;;;;11.21;70.45;99496.50;5113455;28;20114;-74
2021/05/07 05:32:15;;;;;;;14.30;6.70;;;;;;;11.20;71.44;99483.28;5095261;28;20471;-80
2021/05/07 05:34:40;;;;;;;16.58;7.30;;;;;;;11.24;72.76;99493.59;5118801;28;20031;-74
2021/05/07 05:37:06;;;;;;;17.65;8.82;;;;;;;11.22;73.05;99498.22;5113325;28;20471;-69
2021/05/07 05:39:31;;;;;;;15.35;9.23;;;;;;;11.23;73.51;99501.72;5113360;28;20042;-69
2021/05/07 05:41:58;;;;;;;16.08;8.55;;;;;;;11.17;73.41;99493.19;5113386;28;20038;-76
2021/05/07 05:44:24;;;;;;;14.73;7.38;;;;;;;11.12;73.13;99483.84;5061293;28;20032;-78
2021/05/07 05:46:49;;;;;;;14.63;7.03;;;;;;;11.14;73.91;99488.09;5090635;28;20040;-77
2021/05/07 05:49:14;;;;;;;13.63;6.93;;;;;;;11.23;73.23;99478.56;5064570;28;20492;-77
2021/05/07 05:51:40;;;;;;;13.98;7.18;;;;;;;11.28;74.39;99488.88;5082931;28;20036;-78
2021/05/07 05:54:06;;;;;;;13.48;6.90;;;;;;;11.09;74.82;99462.72;5111496;28;20418;-75
2021/05/07 05:56:32;;;;;;;14.05;6.97;;;;;;;11.12;76.02;99490.03;5112195;28;20465;-79
2021/05/07 05:58:57;;;;;;;13.95;7.35;;;;;;;11.18;75.25;99500.25;5109509;28;20071;-78
2021/05/07 06:01:23;;;;;;;16.92;8.05;;;;;;;11.10;75.50;99502.66;5101717;28;20369;-76
2021/05/07 06:03:48;;;;;;;18.15;8.43;;;;;;;10.98;76.31;99489.34;5086576;28;20024;-77
2021/05/07 06:06:14;;;;;;;15.57;8.52;;;;;;;11.20;76.33;99497.47;5104763;28;20028;-78
2021/05/07 06:08:40;;;;;;;17.10;8.95;;;;;;;11.23;76.54;99496.41;5104053;28;20530;-77
2021/05/07 06:11:05;;;;;;;17.35;8.98;;;;;;;11.15;76.75;99479.13;5078512;28;20165;-76
2021/05/07 06:13:31;;;;;;;18.48;9.45;;;;;;;11.25;76.59;99484.63;5077590;28;20127;-79
2021/05/07 06:15:57;;;;;;;15.75;9.57;;;;;;;11.24;77.14;99501.59;5078267;28;20036;-79
2021/05/07 06:18:22;;;;;;;16.73;8.98;;;;;;;11.35;76.34;99495.47;5077606;28;20056;-75
2021/05/07 06:20:48;;;;;;;13.85;8.05;;;;;;;11.26;76.92;99507.69;5101564;28;20055;-79
2021/05/07 06:23:14;;;;;;;13.93;8.68;;;;;;;11.27;77.01;99525.41;5096207;28;20032;-76
2021/05/07 06:25:39;;;;;;;14.55;8.80;;;;;;;11.35;77.97;99533.69;5095539;28;20130;-77
2021/05/07 06:28:05;;;;;;;13.32;7.78;;;;;;;11.37;77.05;99537.09;5077969;28;20064;-75
2021/05/07 06:30:31;;;;;;;16.77;8.45;;;;;;;11.47;76.37;99538.09;5095446;28;20448;-71
2021/05/07 06:32:56;;;;;;;16.30;8.38;;;;;;;11.39;76.31;99532.50;5061370;28;20127;-70
2021/05/07 06:35:22;;;;;;;15.00;8.85;;;;;;;11.39;77.06;99529.84;5095622;28;20067;-73
2021/05/07 06:37:48;;;;;;;16.63;8.38;;;;;;;11.23;75.88;99502.59;5077666;28;20032;-73
2021/05/07 06:40:14;;;;;;;16.70;8.63;;;;;;;11.01;76.29;99476.66;5060856;28;20032;-73
2021/05/07 06:42:40;;;;;;;17.05;8.65;;;;;;;11.33;76.97;99529.44;5089422;28;20033;-73
2021/05/07 06:45:08;;;;;;;17.70;9.20;;;;;;;11.40;78.22;99550.25;5040714;28;20132;-76
2021/05/07 06:47:34;;;;;;;14.23;8.13;;;;;;;11.27;77.46;99525.41;5057130;28;20029;-74
2021/05/07 06:50:00;;;;;;;16.08;8.68;;;;;;;11.26;77.43;99517.50;5057519;28;20037;-72
2021/05/07 06:52:26;;;;;;;15.23;7.88;;;;;;;11.41;76.66;99533.25;5057211;28;20484;-72
2021/05/07 06:54:51;;;;;;;16.17;7.80;;;;;;;11.45;76.60;99532.03;5057487;28;20037;-73
2021/05/07 06:57:17;;;;;;;15.23;8.30;;;;;;;11.15;76.67;99462.25;5074945;28;20149;-75
2021/05/07 06:59:46;;;;;;;16.83;9.02;;;;;;;11.55;77.31;99534.88;5057054;28;20035;-73
2021/05/07 07:02:12;;;;;;;14.70;8.32;;;;;;;11.30;77.13;99461.13;5057755;28;20462;-76
2021/05/07 07:04:37;;;;;;;14.90;8.95;;;;;;;11.70;77.06;99519.50;5074704;28;20089;-75
2021/05/07 07:07:03;;;;;;;19.75;10.13;;;;;;;11.77;76.38;99523.38;5075007;28;20032;-75
2021/05/07 07:09:28;;;;;;;18.92;10.18;;;;;;;11.58;76.26;99497.25;5056932;28;20067;-76
2021/05/07 07:11:54;;;;;;;15.38;9.30;;;;;;;11.50;76.99;99482.78;5057139;28;20393;-75
2021/05/07 07:14:19;;;;;;;20.67;9.68;;;;;;;11.58;76.37;99496.38;5075860;28;20492;-77
2021/05/07 07:16:45;;;;;;;20.30;10.45;;;;;;;11.92;77.14;99548.97;5095085;28;20071;-79
2021/05/07 07:19:10;;;;;;;19.13;9.38;;;;;;;11.99;77.40;99558.25;5095435;28;20048;-76
2021/05/07 07:21:36;;;;;;;17.45;9.55;;;;;;;11.99;77.23;99560.06;5095088;28;20061;-71
2021/05/07 07:24:02;;;;;;;16.75;8.93;;;;;;;11.96;77.66;99561.13;5060365;28;20032;-72
2021/05/07 07:26:28;;;;;;;17.30;9.63;;;;;;;12.08;76.42;99537.97;5076349;28;20405;-72
2021/05/07 07:28:54;;;;;;;17.10;9.85;;;;;;;12.01;76.66;99523.38;5094780;28;20047;-73
2021/05/07 07:31:21;;;;;;;23.08;10.63;;;;;;;12.17;76.90;99541.75;5094820;28;20036;-77
2021/05/07 07:33:47;;;;;;;18.52;10.32;;;;;;;12.10;77.59;99525.34;5077262;28;20028;-76
2021/05/07 07:36:13;;;;;;;15.48;9.07;;;;;;;12.31;77.33;99544.19;5060133;28;20043;-76
2021/05/07 07:38:39;;;;;;;18.50;9.57;;;;;;;12.14;76.41;99499.19;5076308;28;20133;-76
2021/05/07 07:41:04;;;;;;;16.85;9.43;;;;;;;12.45;76.79;99545.75;5076755;28;20036;-75
2021/05/07 07:43:30;;;;;;;17.77;8.88;;;;;;;12.63;75.78;99556.84;5046755;28;20390;-74
2021/05/07 07:45:55;;;;;;;14.80;8.95;;;;;;;12.64;75.21;99526.44;5056478;28;20182;-83
2021/05/07 07:48:21;;;;;;;17.45;8.73;;;;;;;12.80;74.90;99542.97;5074765;28;20082;-74
2021/05/07 07:50:46;;;;;;;18.17;9.23;;;;;;;12.72;74.95;99537.38;5056446;28;20036;-75
2021/05/07 07:53:12;;;;;;;15.30;8.50;;;;;;;12.88;74.32;99538.69;5056628;28;20029;-73
2021/05/07 07:55:38;;;;;;;14.70;8.75;;;;;;;12.87;74.33;99530.78;5055868;28;20670;-73
2021/05/07 07:58:04;;;;;;;16.05;8.38;;;;;;;12.91;74.34;99534.91;5074382;28;20102;-74
2021/05/07 08:00:30;;;;;;;16.08;9.30;;;;;;;12.65;75.03;99496.06;5055887;28;20039;-74
2021/05/07 08:02:55;;;;;;;19.70;9.82;;;;;;;12.97;74.14;99537.09;5074129;28;20028;-77
2021/05/07 08:05:22;;;;;;;19.75;10.63;;;;;;;13.01;74.18;99533.19;5039076;28;20367;-75
2021/05/07 08:07:47;;;;;;;19.25;11.02;;;;;;;13.17;74.11;99554.22;5074398;28;20040;-75
2021/05/07 08:10:15;;;;;;;18.38;11.32;;;;;;;13.08;75.17;99549.59;5074013;28;20048;-74
2021/05/07 08:12:41;;;;;;;16.83;10.77;;;;;;;13.16;74.94;99564.06;5039211;28;20082;-76
2021/05/07 08:15:08;;;;;;;17.50;9.65;;;;;;;13.18;75.02;99540.69;5073468;28;20076;-74
2021/05/07 08:17:33;;;;;;;18.73;10.13;;;;;;;13.21;74.99;99541.44;5055919;28;20028;-74
2021/05/07 08:19:59;;;;;;;21.00;10.02;;;;;;;13.40;75.18;99555.88;5055711;28;20048;-76
2021/05/07 08:22:25;;;;;;;19.23;10.13;;;;;;;13.48;75.23;99555.25;5074315;28;20111;-75
2021/05/07 08:24:51;;;;;;;19.30;10.60;;;;;;;13.64;75.06;99558.34;5041950;28;20529;-78
2021/05/07 08:27:16;;;;;;;15.27;9.15;;;;;;;13.70;74.80;99568.56;5073569;28;20037;-75
2021/05/07 08:29:42;;;;;;;20.42;10.43;;;;;;;13.79;74.85;99568.75;5055554;28;20151;-75
2021/05/07 08:32:07;;;;;;;18.90;9.63;;;;;;;13.98;74.63;99569.72;5073587;28;20029;-76
2021/05/07 08:34:33;;;;;;;14.70;9.20;;;;;;;14.13;73.34;99570.28;5055212;28;20462;-76
2021/05/07 08:36:58;;;;;;;18.52;9.48;;;;;;;14.26;72.93;99565.53;5073239;28;20036;-77
2021/05/07 08:39:24;;;;;;;18.73;10.10;;;;;;;14.33;72.38;99569.41;5073048;28;20037;-78
2021/05/07 08:41:49;;;;;;;18.98;9.18;;;;;;;14.50;71.40;99562.63;5073717;28;20034;-75
2021/05/07 08:44:18;;;;;;;18.23;9.60;;;;;;;14.44;72.27;99560.41;5095143;28;20043;-73
2021/05/07 08:46:45;;;;;;;16.48;8.55;;;;;;;14.49;71.69;99549.34;5093617;28;20032;-77
2021/05/07 08:49:11;;;;;;;15.30;8.13;;;;;;;14.64;70.72;99558.72;5076042;28;20416;-78
2021/05/07 08:51:39;;;;;;;12.95;8.38;;;;;;;14.67;70.64;99549.53;5059142;28;20032;-74
2021/05/07 08:54:07;;;;;;;15.05;7.90;;;;;;;14.38;70.73;99503.75;5093838;28;20040;-78
2021/05/07 08:56:34;;;;;;;14.57;7.28;;;;;;;14.59;70.27;99544.84;5090834;28;20370;-85
2021/05/07 08:58:59;;;;;;;18.33;7.68;;;;;;;14.47;69.21;99524.44;5072805;28;20091;-75
2021/05/07 09:01:24;;;;;;;14.15;7.05;;;;;;;14.64;69.87;99544.44;5074335;28;20077;-75
2021/05/07 09:03:50;;;;;;;14.30;6.85;;;;;;;14.56;70.21;99545.09;5074967;28;20020;-74
2021/05/07 09:06:20;;;;;;;14.57;7.43;;;;;;;14.41;69.83;99515.09;5092962;28;20159;-73
2021/05/07 09:08:48;;;;;;;14.75;7.28;;;;;;;14.55;69.49;99544.25;5074848;28;20494;-78
2021/05/07 09:11:15;;;;;;;18.00;8.68;;;;;;;14.30;69.13;99496.41;5093523;28;20057;-74
2021/05/07 09:13:41;;;;;;;13.85;7.70;;;;;;;14.48;69.84;99544.97;5061728;28;20024;-74
2021/05/07 09:16:08;;;;;;;16.65;7.75;;;;;;;14.10;69.36;99516.91;5054469;28;20386;-75
2021/05/07 09:18:49;;;;;;;11.55;7.03;;;;;;;14.16;69.21;99540.50;5081188;28;20158;-76
2021/05/07 09:21:15;;;;;;;13.68;7.25;;;;;;;14.46;68.33;99560.31;5092540;28;20458;-72
2021/05/07 09:23:43;;;;;;;14.23;8.02;;;;;;;14.50;68.79;99556.41;5074279;28;20494;-78
2021/05/07 09:26:09;;;;;;;18.05;8.15;;;;;;;14.48;69.09;99563.75;5092399;28;20128;-78
2021/05/07 09:28:35;;;;;;;13.45;7.70;;;;;;;14.32;68.80;99559.66;5092612;28;20481;-75
2021/05/07 09:31:12;;;;;;;17.80;8.55;;;;;;;14.35;69.25;99569.28;5074651;28;20114;-77
2021/05/07 09:33:45;;;;;;;16.75;8.70;;;;;;;14.25;70.04;99579.94;5092050;28;20452;-75
2021/05/07 09:36:27;;;;;;;15.13;8.45;;;;;;;14.13;71.22;99581.00;5092045;28;20530;-75
2021/05/07 09:38:53;;;;;;;16.85;9.20;;;;;;;14.03;71.41;99564.00;5072952;28;20028;-74
2021/05/07 09:41:19;;;;;;;20.23;8.90;;;;;;;14.07;71.49;99577.97;5074738;28;20047;-74
2021/05/07 09:43:45;;;;;;;19.92;8.68;;;;;;;14.09;71.31;99566.16;5086025;28;20036;-77
2021/05/07 09:46:11;;;;;;;13.43;8.68;;;;;;;14.22;71.21;99577.53;5092012;28;20120;-74
2021/05/07 09:48:40;;;;;;;13.75;8.73;;;;;;;14.09;71.04;99566.16;5073454;28;20036;-72
2021/05/07 09:51:07;;;;;;;13.63;8.65;;;;;;;14.09;70.75;99525.06;5092256;28;20028;-75
2021/05/07 09:53:37;;;;;;;14.30;8.85;;;;;;;14.37;71.06;99553.88;5073634;28;20063;-70
2021/05/07 09:56:17;;;;;;;16.70;8.77;;;;;;;14.41;70.88;99546.44;5073673;28;20036;-74
2021/05/07 09:58:43;;;;;;;16.08;9.10;;;;;;;14.42;70.39;99545.44;5073576;28;20032;-73
2021/05/07 10:01:09;;;;;;;14.75;8.55;;;;;;;14.28;71.23;99552.88;5092051;28;20477;-70
2021/05/07 10:03:35;;;;;;;17.60;8.50;;;;;;;14.18;71.42;99546.56;5054688;28;20041;-74
2021/05/07 10:06:02;;;;;;;16.35;8.32;;;;;;;14.28;71.38;99550.19;5073784;28;20032;-75
2021/05/07 10:08:29;;;;;;;14.75;7.88;;;;;;;14.24;70.78;99529.97;5056555;28;20119;-73
2021/05/07 10:10:59;;;;;;;13.88;8.00;;;;;;;13.95;71.81;99499.44;5054033;28;20523;-70
2021/05/07 10:13:31;;;;;;;14.63;8.57;;;;;;;14.35;72.13;99553.16;5057752;28;20040;-71
2021/05/07 10:16:08;;;;;;;17.55;8.98;;;;;;;14.29;71.89;99533.13;5057687;28;20127;-70
2021/05/07 10:18:35;;;;;;;16.50;8.52;;;;;;;14.10;72.05;99492.78;5072907;28;20058;-74
2021/05/07 10:21:06;;;;;;;15.25;8.50;;;;;;;14.24;71.53;99505.81;5072559;28;20169;-71
2021/05/07 10:23:34;;;;;;;14.05;8.30;;;;;;;14.46;71.17;99538.84;5073513;28;20123;-72
2021/05/07 10:26:09;;;;;;;12.30;7.78;;;;;;;14.39;71.56;99522.44;5073837;28;20035;-75
2021/05/07 10:28:52;;;;;;;11.98;7.53;;;;;;;14.67;71.25;99563.81;5073708;28;20039;-74
2021/05/07 10:31:20;;;;;;;10.82;7.05;;;;;;;14.53;72.41;99548.91;5092076;28;20386;-73
2021/05/07 10:34:03;;;;;;;12.88;7.82;;;;;;;14.54;73.51;99539.88;5073396;28;20032;-72
2021/05/07 10:36:46;;;;;;;13.60;7.43;;;;;;;14.39;75.36;99545.72;5073214;28;20438;-72
2021/05/07 10:39:20;;;;;;;13.40;7.72;;;;;;;14.46;75.43;99563.84;5091767;28;20111;-75
2021/05/07 10:41:47;;;;;;;16.15;8.27;;;;;;;14.32;75.76;99556.13;5073116;28;20465;-70
2021/05/07 10:44:14;;;;;;;11.88;6.78;;;;;;;14.35;75.40;99550.50;5054659;28;20036;-70
2021/05/07 10:46:42;;;;;;;9.25;6.38;;;;;;;14.18;75.02;99533.16;5071174;28;20043;-71
2021/05/07 10:49:08;;;;;;;11.75;7.05;;;;;;;14.26;75.71;99560.19;5072423;28;20064;-73
2021/05/07 10:51:34;;;;;;;11.38;7.18;;;;;;;14.07;76.84;99568.09;5074228;28;20083;-74
2021/05/07 10:54:11;;;;;;;14.68;6.72;;;;;;;13.96;76.67;99570.84;5077368;28;20035;-74
2021/05/07 10:56:39;;;;;;;10.73;6.70;;;;;;;13.89;77.00;99588.44;5076572;28;20040;-75
2021/05/07 10:59:15;;;;;;;10.75;6.82;;;;;;;13.75;77.62;99574.38;5095246;28;20063;-75
2021/05/07 11:01:42;;;;;;;14.05;8.13;;;;;;;13.57;77.91;99546.44;5094786;28;20032;-75
2021/05/07 11:04:10;;;;;;;12.05;6.38;;;;;;;13.75;77.77;99592.28;5095055;28;20032;-75
2021/05/07 11:06:42;;;;;;;13.98;6.45;;;;;;;13.51;77.66;99564.84;5094488;28;20475;-74
2021/05/07 11:09:24;;;;;;;10.80;6.57;;;;;;;13.75;77.36;99590.44;5095011;28;20024;-72
2021/05/07 11:11:52;;;;;;;9.68;6.32;;;;;;;13.83;78.00;99615.78;5076821;28;20032;-76
2021/05/07 11:14:19;;;;;;;10.25;6.55;;;;;;;13.86;77.77;99618.19;5082451;28;20113;-74
2021/05/07 11:16:47;;;;;;;10.90;6.57;;;;;;;13.77;78.04;99611.75;5076195;28;20059;-76
2021/05/07 11:19:28;;;;;;;10.18;6.65;;;;;;;13.68;78.13;99586.56;5076607;28;20055;-73
2021/05/07 11:22:03;;;;;;;8.68;5.20;;;;;;;13.67;77.90;99611.69;5056639;28;20413;-73
2021/05/07 11:24:34;;;;;;;9.93;5.03;;;;;;;13.70;77.94;99602.53;5082904;28;20036;-78
2021/05/07 11:27:02;;;;;;;10.77;5.15;;;;;;;13.50;77.95;99580.06;5094540;28;20102;-72
2021/05/07 11:29:35;;;;;;;11.60;5.30;;;;;;;13.66;79.63;99590.38;5094130;28;20032;-72